createdAt,value
2022-11-17T02:25:50.947Z,97891.28
2022-11-17T02:28:26.117Z,97884.47
2022-11-17T02:31:07.745Z,97877.91
2022-11-17T02:34:02.738Z,97874.06
2022-11-17T02:36:36.055Z,97876.75
2022-11-17T02:39:20.063Z,97871.44
2022-11-17T02:41:46.579Z,97879.66
2022-11-17T02:44:21.612Z,97879.97
2022-11-17T02:47:15.854Z,97878.34
2022-11-17T02:49:49.890Z,97864.34
2022-11-17T02:52:18.560Z,97851.53
2022-11-17T02:55:02.912Z,97855.66
2022-11-17T02:57:39.774Z,97870.22
2022-11-17T03:00:11.179Z,97883.38
2022-11-17T03:03:02.814Z,97882.78
2022-11-17T03:05:35.840Z,97889.25
2022-11-17T03:08:20.938Z,97881.53
2022-11-17T03:10:47.642Z,97891.00
2022-11-17T03:13:21.445Z,97883.25
2022-11-17T03:15:57.284Z,97881.41
2022-11-17T03:18:30.673Z,97891.13
2022-11-17T03:21:08.193Z,97886.75
2022-11-17T03:23:45.359Z,97897.50
2022-11-17T03:26:14.019Z,97891.03
2022-11-17T03:28:42.861Z,97884.81
2022-11-17T03:31:11.399Z,97881.22
2022-11-17T07:56:24.705Z,97911.94
2022-11-17T07:58:51.359Z,97904.63
2022-11-17T08:01:18.030Z,97909.03
2022-11-17T08:03:44.839Z,97898.78
2022-11-17T08:06:11.599Z,97904.03
2022-11-17T08:08:39.222Z,97918.13
2022-11-17T08:11:11.555Z,97918.28
2022-11-17T08:13:39.687Z,97918.06
2022-11-17T08:16:07.463Z,97923.47
2022-11-17T08:18:34.749Z,97926.22
2022-11-17T08:21:13.799Z,97912.97
2022-11-17T08:23:41.132Z,97920.78
2022-11-17T08:26:09.929Z,97916.13
2022-11-17T08:31:27.289Z,97916.75
2022-11-17T08:33:53.872Z,97908.19
2022-11-17T08:36:20.494Z,97912.94
2022-11-17T08:38:47.051Z,97919.19
2022-11-17T08:41:13.772Z,97919.56
2022-11-17T08:43:40.451Z,97928.53
2022-11-17T08:46:13.915Z,97928.28
2022-11-17T08:48:40.669Z,97915.81
2022-11-17T08:51:08.577Z,97915.59
2022-11-17T08:53:35.584Z,97933.63
2022-11-17T08:56:02.179Z,97933.72
2022-11-17T08:58:28.785Z,97929.22
2022-11-17T09:00:57.597Z,97928.47
2022-11-17T09:03:26.330Z,97927.16
2022-11-17T09:05:53.141Z,97922.66
2022-11-17T09:08:55.912Z,97918.16
2022-11-17T09:11:08.097Z,97921.69
2022-11-17T09:13:36.187Z,97928.94
2022-11-17T09:16:10.504Z,97921.19
2022-11-17T09:18:38.840Z,97930.03
2022-11-17T09:21:11.078Z,97919.03
2022-11-17T09:23:38.099Z,97915.06
2022-11-17T09:26:10.181Z,97903.25
2022-11-17T09:28:37.288Z,97897.13
2022-11-17T09:31:15.362Z,97890.16
2022-11-17T09:33:42.919Z,97890.16
2022-11-17T09:36:10.972Z,97888.03
2022-11-17T09:38:38.404Z,97889.91
2022-11-17T09:41:27.867Z,97891.53
2022-11-17T09:44:16.277Z,97893.91
2022-11-17T09:46:56.404Z,97899.03
2022-11-17T09:49:44.182Z,97908.69
2022-11-17T09:52:23.329Z,97908.72
2022-11-17T09:54:59.713Z,97912.97
2022-11-17T09:57:35.477Z,97905.72
2022-11-17T10:00:15.141Z,97899.84
2022-11-17T10:02:42.897Z,97902.78
2022-11-17T10:05:14.209Z,97891.00
2022-11-17T10:07:47.413Z,97891.53
2022-11-17T10:10:21.825Z,97885.66
2022-11-17T10:12:52.558Z,97887.78
2022-11-17T10:15:28.761Z,97885.91
2022-11-17T10:17:55.399Z,97878.91
2022-11-17T10:20:22.022Z,97882.16
2022-11-17T10:22:48.722Z,97879.19
2022-11-17T10:25:35.078Z,97882.13
2022-11-17T10:28:01.836Z,97875.16
2022-11-17T10:30:28.370Z,97878.13
2022-11-17T10:32:57.169Z,97878.66
2022-11-17T10:35:30.668Z,97884.28
2022-11-17T10:38:06.820Z,97885.63
2022-11-17T10:40:49.231Z,97875.97
2022-11-17T10:43:17.235Z,97883.47
2022-11-17T10:45:44.902Z,97882.91
2022-11-17T10:48:25.582Z,97896.31
2022-11-17T10:51:19.296Z,97889.63
2022-11-17T10:54:09.175Z,97878.09
2022-11-17T10:56:42.053Z,97890.47
2022-11-17T10:59:30.693Z,97889.06
2022-11-17T11:01:57.685Z,97885.63
2022-11-17T11:04:41.478Z,97876.53
2022-11-17T11:07:22.373Z,97866.88
2022-11-17T11:10:02.697Z,97877.84
2022-11-17T11:12:41.692Z,97882.97
2022-11-17T11:15:15.396Z,97882.88
2022-11-17T11:17:42.034Z,97878.59
2022-11-17T11:20:13.714Z,97886.00
2022-11-17T11:22:55.843Z,97875.81
2022-11-17T11:25:28.569Z,97887.97
2022-11-17T11:28:33.570Z,97893.28
2022-11-17T11:31:12.246Z,97895.69
2022-11-17T11:33:41.907Z,97916.75
2022-11-17T11:36:10.132Z,97919.75
2022-11-17T11:39:03.787Z,97902.00
2022-11-17T11:41:39.620Z,97893.06
2022-11-17T11:44:31.610Z,97886.38
2022-11-17T11:47:22.599Z,97884.41
2022-11-17T11:49:52.982Z,97892.44
2022-11-17T11:52:22.257Z,97889.56
2022-11-17T11:55:21.724Z,97907.38
2022-11-17T11:57:55.226Z,97912.63
2022-11-17T12:00:22.048Z,97909.63
2022-11-17T12:03:10.298Z,97929.53
2022-11-17T12:05:42.041Z,97922.50
2022-11-17T12:08:11.069Z,97925.34
2022-11-17T12:11:27.024Z,97926.16
2022-11-17T12:13:54.670Z,97928.22
2022-11-17T12:16:37.064Z,97941.09
2022-11-17T12:19:42.429Z,97948.59
2022-11-17T12:22:10.352Z,97958.63
2022-11-17T12:24:40.698Z,97974.84
2022-11-17T12:27:31.372Z,98001.47
2022-11-17T12:29:58.046Z,97994.44
2022-11-17T12:32:43.394Z,97998.41
2022-11-17T12:35:25.285Z,97991.75
2022-11-17T12:38:22.405Z,97982.22
2022-11-17T12:40:51.078Z,97967.78
2022-11-17T12:43:20.676Z,97964.72
2022-11-17T12:45:59.270Z,97970.28
2022-11-17T12:48:34.772Z,97971.28
2022-11-17T12:51:14.036Z,97958.09
2022-11-17T12:53:55.865Z,97960.66
2022-11-17T12:56:49.875Z,97960.13
2022-11-17T12:59:34.732Z,97959.09
2022-11-17T13:02:27.675Z,97950.03
2022-11-17T13:04:58.768Z,97948.91
2022-11-17T13:07:26.800Z,97933.69
2022-11-17T13:09:57.068Z,97917.63
2022-11-17T13:12:29.171Z,97910.81
2022-11-17T13:15:02.568Z,97903.91
2022-11-17T13:17:34.607Z,97903.25
2022-11-17T13:20:04.073Z,97890.75
2022-11-17T13:22:30.945Z,97885.25
2022-11-17T13:24:57.899Z,97890.94
2022-11-17T13:27:25.847Z,97890.38
2022-11-17T13:29:53.671Z,97888.66
2022-11-17T13:32:23.060Z,97885.06
2022-11-17T13:34:58.071Z,97888.38
2022-11-17T13:37:29.727Z,97899.97
2022-11-17T13:40:19.911Z,97891.06
2022-11-17T13:42:46.863Z,97884.44
2022-11-17T13:45:16.870Z,97878.88
2022-11-17T13:47:46.605Z,97870.91
2022-11-17T13:50:23.509Z,97875.50
2022-11-17T13:52:55.218Z,97879.00
2022-11-17T13:55:23.371Z,97880.47
2022-11-17T13:57:58.949Z,97875.72
2022-11-17T14:00:26.179Z,97886.28
2022-11-17T14:03:03.187Z,97880.28
2022-11-17T14:05:31.669Z,97885.84
2022-11-17T14:08:10.609Z,97897.41
2022-11-17T14:10:37.941Z,97905.78
2022-11-17T14:13:04.485Z,97906.28
2022-11-17T14:15:34.599Z,97900.84
2022-11-17T14:18:03.798Z,97915.50
2022-11-17T14:20:32.704Z,97916.75
2022-11-17T14:23:13.421Z,97914.16
2022-11-17T14:25:45.167Z,97915.66
2022-11-17T14:28:22.914Z,97920.47
2022-11-17T14:30:52.556Z,97913.97
2022-11-17T14:33:29.745Z,97915.31
2022-11-17T14:43:21.187Z,97910.81
2022-11-17T14:45:55.352Z,97908.34
2022-11-17T14:48:22.359Z,97916.59
2022-11-17T14:51:03.169Z,97923.47
2022-11-17T14:53:40.665Z,97936.09
2022-11-17T14:56:22.191Z,97940.44
2022-11-17T14:58:55.082Z,97955.31
2022-11-17T15:01:28.363Z,97964.44
2022-11-17T15:03:56.777Z,97964.84
2022-11-17T15:06:23.799Z,97967.03
2022-11-17T15:09:01.900Z,97974.78
2022-11-17T15:11:38.098Z,97977.34
2022-11-17T15:14:06.647Z,97967.69
2022-11-17T15:16:34.036Z,97962.31
2022-11-17T15:19:02.304Z,97963.53
2022-11-17T15:21:28.882Z,97970.16
2022-11-17T15:23:55.546Z,97973.91
2022-11-17T15:26:24.758Z,97976.00
2022-11-17T15:28:51.340Z,97976.81
2022-11-17T15:31:19.260Z,97976.00
2022-11-17T15:33:47.242Z,97977.25
2022-11-17T15:36:16.589Z,97965.56
2022-11-17T15:38:43.261Z,97961.03
2022-11-17T15:41:11.444Z,97960.00
2022-11-17T15:43:40.222Z,97960.09
2022-11-17T15:46:12.124Z,97968.13
2022-11-17T15:48:42.198Z,97970.34
2022-11-17T15:51:16.895Z,97964.28
2022-11-17T15:53:44.717Z,97960.09
2022-11-17T15:56:13.345Z,97962.03
2022-11-17T15:58:41.178Z,97956.84
2022-11-17T16:01:11.949Z,97947.06
2022-11-17T16:03:40.230Z,97948.38
2022-11-17T16:06:07.322Z,97952.41
2022-11-17T16:08:34.388Z,97971.53
2022-11-17T16:11:01.330Z,97963.44
2022-11-17T16:13:28.023Z,97962.75
2022-11-17T16:15:55.186Z,97964.91
2022-11-17T16:18:22.158Z,97961.44
2022-11-17T16:20:48.925Z,97965.25
2022-11-17T16:23:15.714Z,97970.00
2022-11-17T16:25:43.702Z,97973.25
2022-11-17T16:28:11.053Z,97970.41
2022-11-17T16:30:37.679Z,97962.41
2022-11-17T16:33:09.751Z,97957.66
2022-11-17T16:35:36.316Z,97961.69
2022-11-17T16:38:03.089Z,97967.69
2022-11-17T16:40:30.741Z,97969.59
2022-11-17T16:43:00.587Z,97963.13
2022-11-17T16:45:27.291Z,97959.50
2022-11-17T16:47:53.862Z,97963.94
2022-11-17T16:50:20.523Z,97957.56
2022-11-17T16:52:47.096Z,97961.03
2022-11-17T16:55:13.680Z,97960.88
2022-11-17T16:57:40.252Z,97953.91
2022-11-17T17:00:07.583Z,97959.97
2022-11-17T17:02:34.776Z,97962.88
2022-11-17T17:05:01.397Z,97957.19
2022-11-17T17:07:27.970Z,97961.81
2022-11-17T17:09:54.535Z,97965.53
2022-11-17T17:12:21.698Z,97967.00
2022-11-17T17:14:48.242Z,97962.47
2022-11-17T17:17:14.810Z,97945.19
2022-11-17T17:19:41.424Z,97947.03
2022-11-17T17:22:07.969Z,97944.63
2022-11-17T17:24:34.763Z,97951.25
2022-11-17T17:27:01.326Z,97931.78
2022-11-17T17:29:27.870Z,97907.78
2022-11-17T17:31:54.451Z,97918.78
2022-11-17T17:34:20.986Z,97920.16
2022-11-17T17:36:47.531Z,97916.59
2022-11-17T17:39:17.770Z,97917.06
2022-11-17T17:41:45.835Z,97914.66
2022-11-17T17:44:17.179Z,97906.47
2022-11-17T17:46:44.510Z,97904.22
2022-11-17T17:49:11.472Z,97898.47
2022-11-17T17:51:41.684Z,97911.69
2022-11-17T17:54:13.663Z,97945.59
2022-11-17T17:56:40.247Z,97930.56
2022-11-17T17:59:07.179Z,97920.41
2022-11-17T18:01:33.827Z,97920.53
2022-11-17T18:04:04.721Z,97913.63
2022-11-17T18:06:38.749Z,97893.69
2022-11-17T18:09:07.047Z,97921.94
2022-11-17T18:11:34.038Z,97922.44
2022-11-17T18:14:00.646Z,97923.72
2022-11-17T18:16:32.205Z,97922.09
2022-11-17T18:19:03.971Z,97928.34
2022-11-17T18:21:30.646Z,97911.91
2022-11-17T18:23:58.557Z,97910.16
2022-11-17T18:26:27.194Z,97924.19
2022-11-17T18:28:58.624Z,97917.16
2022-11-17T18:31:27.395Z,97914.13
2022-11-17T18:33:58.584Z,97922.69
2022-11-17T18:36:26.532Z,97914.50
2022-11-17T18:38:53.632Z,97908.91
2022-11-17T18:41:21.533Z,97906.41
2022-11-17T18:43:48.591Z,97899.09
2022-11-17T18:46:18.361Z,97915.91
2022-11-17T18:48:46.773Z,97907.22
2022-11-17T18:51:20.204Z,97912.31
2022-11-17T18:53:48.318Z,97909.41
2022-11-17T18:56:16.599Z,97902.81
2022-11-17T18:58:44.606Z,97901.31
2022-11-17T19:01:14.600Z,97906.63
2022-11-17T19:03:43.518Z,97911.03
2022-11-17T19:06:11.446Z,97896.69
2022-11-17T19:08:38.641Z,97891.03
2022-11-17T19:11:07.198Z,97887.94
2022-11-17T19:13:35.881Z,97889.34
2022-11-17T19:16:09.654Z,97889.13
2022-11-17T19:18:36.579Z,97893.28
2022-11-17T19:21:17.795Z,97891.53
2022-11-17T19:23:51.061Z,97892.22
2022-11-17T19:26:23.693Z,97905.63
2022-11-17T19:28:50.808Z,97913.81
2022-11-17T19:31:19.306Z,97907.22
2022-11-17T19:33:47.058Z,97907.09
2022-11-17T19:36:14.499Z,97909.88
2022-11-17T19:38:43.050Z,97916.56
2022-11-17T19:41:14.850Z,97922.91
2022-11-17T19:43:45.427Z,97923.50
2022-11-17T19:46:16.631Z,97924.53
2022-11-17T19:48:43.833Z,97906.88
2022-11-17T19:51:14.356Z,97905.84
2022-11-17T19:53:41.235Z,97909.84
2022-11-17T19:56:08.420Z,97906.72
2022-11-17T19:58:35.038Z,97908.81
2022-11-17T20:01:08.281Z,97909.25
2022-11-17T20:03:34.968Z,97912.38
2022-11-17T20:06:01.734Z,97910.75
2022-11-17T20:08:29.793Z,97915.31
2022-11-17T20:11:13.724Z,97913.34
2022-11-17T20:13:40.493Z,97923.41
2022-11-17T20:16:12.217Z,97914.63
2022-11-17T20:18:40.420Z,97909.88
2022-11-17T20:21:07.718Z,97912.31
2022-11-17T20:23:35.224Z,97912.16
2022-11-17T20:26:11.124Z,97922.00
2022-11-17T20:28:38.566Z,97923.69
2022-11-17T20:31:10.265Z,97928.38
2022-11-17T20:33:38.149Z,97924.56
2022-11-17T20:36:06.049Z,97925.91
2022-11-17T20:38:32.747Z,97929.66
2022-11-17T20:41:00.156Z,97926.94
2022-11-17T20:43:27.165Z,97917.09
2022-11-17T20:45:54.880Z,97916.53
2022-11-17T20:48:22.417Z,97915.63
2022-11-17T20:51:21.978Z,97909.47
2022-11-17T20:53:49.458Z,97915.78
2022-11-17T20:56:17.031Z,97904.41
2022-11-17T20:58:43.673Z,97911.84
2022-11-17T21:01:15.324Z,97899.84
2022-11-17T21:03:42.435Z,97895.88
2022-11-17T21:06:09.100Z,97896.41
2022-11-17T21:08:38.093Z,97893.44
2022-11-17T21:11:07.387Z,97891.75
2022-11-17T21:13:34.771Z,97897.72
2022-11-17T21:16:10.944Z,97889.28
2022-11-17T21:18:39.205Z,97896.47
2022-11-17T21:21:09.207Z,97900.16
2022-11-17T21:23:37.252Z,97900.31
2022-11-17T21:26:15.174Z,97903.63
2022-11-17T21:28:41.830Z,97899.28
2022-11-17T21:31:28.625Z,97893.63
2022-11-17T21:33:57.273Z,97899.13
2022-11-17T21:36:25.571Z,97900.09
2022-11-17T21:38:52.530Z,97898.59
2022-11-17T21:41:22.056Z,97913.94
2022-11-17T21:43:49.983Z,97928.06
2022-11-17T21:46:18.801Z,97921.81
2022-11-17T21:48:46.437Z,97912.00
2022-11-17T21:51:17.264Z,97918.78
2022-11-17T21:53:44.631Z,97909.22
2022-11-17T21:56:11.573Z,97914.34
2022-11-17T21:58:40.322Z,97911.28
